Maskell, Nebraska
Current Conditions -  °F | °C
As of 1:55 PM on Sunday 21 Dec 2014 (Local Time) from KYKN Reporting Station
Clear Clear  
Wind Chill: 29°   Ceiling: Unl
Heat Index: 37°   Visibility: 7mi
Dew Point: 34°   Wind: 15mph
Humidity: 87%   Direction: 150°SSE
Pressure: 29.61"   Gusts: NA
Location:  42.69°N, 96.98°W
Report Text: KYKN 211955Z AUTO 15013KT 7SM CLR 03/01 A2961 RMK AO1
Loading
Personal Weather Stations






























Interactive Weather Map New forecast layout! Learn more

10-Day Weather Forecast

Advertisements
Track Severe Weather on mobile